Terminal Aerodrome Forecast
Issued by NWS

Home | Current Version | Previous Version | Text Only | Print | Product List | Glossary On
Versions: 1 2 3 4 5 6 7 8 9 10 11 12
000
FTUS44 KLZK 022300
TAFHOT
TAF
KHOT 022328Z 0300/0324 17004KT P6SM SCT150 BKN250
     FM030800 18004KT 5SM BR BKN015
     FM031400 19006KT P6SM BKN025 BKN040
     FM031800 20007KT P6SM SCT040 SCT150
      AMD NOT SKED=

USA.gov is the U.S. government's official web portal to all federal, state and local government web resources and services.